AirNav   Pilot Hours Calculator
 
 1703 users online  

T94 Twin-Oaks Airport
San Antonio, Texas, USA

GOING TO SAN ANTONIO?


FAA INFORMATION EFFECTIVE 14 JULY 2022

Location

FAA Identifier: T94
Lat/Long: 29-34-12.6730N 098-28-06.2010W
29-34.211217N 098-28.103350W
29.5701869,-98.4683892
(estimated)
Elevation: 873 ft. / 266 m (estimated)
Variation: 07E (1985)
From city: 3 miles N of SAN ANTONIO, TX
Time zone: UTC -5 (UTC -6 during Standard Time)
Zip code: 78232

Airport Operations

Airport use: Open to the public
Activation date: 03/1964
Control tower: no
ARTCC: HOUSTON CENTER
FSS: SAN ANGELO FLIGHT SERVICE STATION
NOTAMs facility: SJT (NOTAM-D service available)
Attendance: UNATNDD
Wind indicator: yes
Segmented circle: no

Airport Communications

CTAF: 122.9
WX ASOS at SAT (2.2 nm S): PHONE 210-805-5583
WX ASOS at SSF (14 nm S): PHONE 210-927-9391
WX AWOS-3 at 5C1 (15 nm NW): 118.725 (830-755-9099)

Nearby radio navigation aids

VOR radial/distance  VOR name  Freq  Var
SATr177/4.4SAN ANTONIO VORTAC116.8008E
RNDr283/10.0RANDOLPH VORTAC112.3005E
SSFr347/(18.8)STINSON VOR108.4009E

 
NDB name  Hdg/Dist  Freq  Var  ID
ALAMO109/5.736804EAN .- -.
DEVINE037/35.735907EHHH .... .... ....

Airport Services

Airframe service: NONE
Powerplant service: NONE
Bulk oxygen: NONE

Runway Information

Runway 12/30

Dimensions: 2225 x 30 ft. / 678 x 9 m
Surface: asphalt, in fair condition
Weight bearing capacity: 
Single wheel: 4.0
Runway edge markings: RWY NRS 10 FT TALL; CNTRLN STRIPE 20 FT LONG WITH 20 FT SPACES.
RUNWAY 12  RUNWAY 30
Traffic pattern: leftleft
Markings: NSTD, in good conditionNSTD, in good condition
Obstructions: 65 ft. trees, 200 ft. from runway
6 FT FENCE 30 FT L; ROAD 50 FT R; BLDGS 60-100 FT L OF CNTRLN; 30 FT TREE 17 FT FM RWY END; 30-50 FT TREES 0-199 FT DSTC; 5 FT FENCE 23 FT DSTC; 15 FT RD 34 FT DSTC.
34 ft. tree, 200 ft. from runway
6 FT FENCE 40 FT EAST OF RWY; 5 FT FENCE 23 FT DSTC 13 FT ROAD 33 FT DSTC.

Airport Ownership and Management from official FAA records

Ownership: Privately-owned
Owner: TWIN OAKS AIR PARK
630 HEIMER RD
SAN ANTONIO, TX 78232
Phone 210-494-3928
Manager: SHIRLEY FOWLER
630 HEIMER RD
SAN ANTONIO, TX 78232
Phone 210-494-3928
ALSO 817-800-6615 THOMAS FOWLER.

Airport Operational Statistics

Aircraft based on the field: 12
Single engine airplanes: 12
    
Aircraft operations: avg 48/month *
87% local general aviation
13% transient general aviation
* for 12-month period ending 12 May 2017

Additional Remarks

HNGRS, TREES, FENCES WI 30 FT OF RWY. TREE BRANCHES OVERHANG ALMOST TO RWY EDGE, EAST SIDE.
NO TRML FAC. ARPT FENCED, GATE LOCKED. PUBLIC RESTROOMS AVBL 3RD BLDG FM NW END, W SIDE.
RESIDENTAL HOUSES, HNGRS AND TREES OBSTRUCT RWY PRIM SFC NORTHEAST OF RWY.
ARPT CLSD AT NGT TO TSNT ACFT.
WOODEN FENCE LCTD APRXLY 70 FT EAST OF RWY ENTIRE LEN OF RWY.
ARPT INSIDE SAN ANTONIO CLASS C SFC AREA. COORD ARR & DEP WITH SAN ANTONIO INTL ATCT, 119.8.
FOR CD CTC SAN ANTONIO APCH AT 210-805-5516.
RWY SLOPES UP FM EAST TO WEST; RWY 12 END 41 FT HIGHER THAN RWY 30 END.

Instrument Procedures

There are no published instrument procedures at T94.

Some nearby airports with instrument procedures:

KSAT - San Antonio International Airport (2 nm S)
KRND - Randolph Air Force Base (10 nm E)
KSKF - Kelly Field Airport (13 nm SW)
KSSF - Stinson Municipal Airport (14 nm S)
5C1 - Boerne Stage Field Airport (15 nm NW)
 
Loc | Ops | Rwys | IFR | FBO | Links
Com | Nav | Svcs | Stats | Notes
Area around T94 (Twin-Oaks Airport)
 
Road maps at: MapQuest Bing Google
 
Aerial photo
WARNING: Photo may not be current or correct
Aerial photo of T94 (Twin-Oaks Airport)
Do you have a better or more recent aerial photo of Twin-Oaks Airport that you would like to share? If so, please send us your photo.

 
Sectional chart

 
Airport distance calculator
Flying to Twin-Oaks Airport? Find the distance to fly.

From to T94

Sunrise and sunset
Times for 10-Aug-2022
 Local
(UTC-5)
 Zulu
(UTC)
Morning civil twilight06:3511:35
Sunrise07:0012:00
Sunset20:1801:18
Evening civil twilight20:4401:44

Current date and time
Zulu (UTC)  10-Aug-2022 14:52:12
Local (UTC-5)  10-Aug-2022 09:52:12
 
METAR
KSAT 
2nm S 
101351Z 21006KT 10SM SCT017 27/22 A3011 RMK AO2 SLP177 T02720222
KRND 
11nm E 
101437Z COR VRB06KT 10SM SCT016 29/23 A3009 RMK AO2A SLP180 $ COR 1438
KSKF 
13nm SW 
101356Z AUTO 15006KT 10SM CLR 27/27 A3009 RMK AO2 SLP181 T02730273 $
KSSF 
14nm S 
101353Z 18005KT 10SM FEW013 28/23 A3008 RMK AO2 SLP173 T02780233 $
K5C1 
15nm NW 
101435Z AUTO 18003KT 10SM CLR 27/20 A3014 RMK AO1
TAF
KSAT 
2nm S 
101121Z 1012/1118 17005KT P6SM SCT015 FM101500 17010KT P6SM SCT060 SCT250 FM102300 11007G17KT P6SM VCSH BKN070 PROB30 1023/1103 VRB25KT 6SM -TSRA BKN050CB FM110300 16007KT P6SM VCSH BKN080
KRND 
11nm E 
101345Z 1013/1119 VRB06KT 9999 FEW015 SCT250 QNH2994INS TEMPO 1013/1015 BKN012 BECMG 1100/1101 15010G15KT 9999 VCSH FEW045 BKN060 QNH3002INS BECMG 1102/1103 16012G18KT 8000 -SHRA VCTS SCT035CB BKN050 QNH3004INS TEMPO 1103/1107 VRB16G30KT 4800 TSRA BKN035CB BECMG 1111/1112 25010G15KT 9999 VCSH BKN025 OVC040 QNH3003INS BECMG 1114/1115 28010G15KT 9999 NSW SCT030 BKN050 QNH3005INS TX38/1022Z TN27/1013Z
KSKF 
13nm SW 
101000Z 1010/1116 15006KT 9999 SKC QNH3004INS BECMG 1012/1013 17006KT 9999 SCT100 QNH3003INS BECMG 1019/1020 10009KT 9999 FEW050 SCT100 QNH3007INS BECMG 1023/1100 08009KT 9999 BKN080 BKN120 BKN250 QNH2992INS TEMPO 1023/1104 04010G20KT VCTS BECMG 1104/1105 15006KT 9999 BKN080 QNH3002INS TX38/1021Z TN24/1012Z
KSSF 
14nm S 
100520Z 1006/1106 16008KT P6SM FEW070 SCT250 FM100800 15004KT P6SM SCT015 SCT250 FM101500 17008KT P6SM FEW060 SCT250 FM102300 10007G17KT P6SM VCSH BKN070 PROB30 1023/1103 VRB25KT 6SM -TSRA BKN050CB FM110300 15005KT P6SM VCSH BKN080
NOTAMs
Click for the latest NOTAMs
NOTAMs are issued by the DoD/FAA and will open in a separate window not controlled by AirNav.

 

 
 

Would you like to see your business listed on this page?

 If your business provides an interesting product or service to pilots, flight crews, aircraft, or users of the Twin-Oaks Airport, you should consider listing it here.  To start the listing process, click on the button below
 
Add a business
 

Other Pages about Twin-Oaks Airport

Update a link
 
Copyright © AirNav, LLC. All rights reserved. Privacy Policy  Contact